Time;durP1;ratioP1;P1;durP2;ratioP2;P2;SDS_P1;SDS_P2;PMS_P1;PMS_P2;Temp;Humidity;BMP_temperature;BMP_pressure;BME280_temperature;BME280_humidity;BME280_pressure;Samples;Min_cycle;Max_cycle;Signal;HPM_P1;HPM_P2
2022/10/07 00:00:56;;;;;;;;;;;11.10;99.90;;;;;;8408414;28;19921;-77
2022/10/07 00:04:57;;;;;;;;;;;11.10;99.90;;;;;;8397764;28;20546;-78
2022/10/07 00:09:01;;;;;;;;;;;11.10;99.90;;;;;;8410095;28;20302;-77
2022/10/07 00:13:03;;;;;;;;;;;11.00;99.90;;;;;;8416740;28;20303;-77
2022/10/07 00:17:05;;;;;;;;;;;11.00;99.90;;;;;;8400981;28;19935;-77
2022/10/07 00:21:08;;;;;;;;;;;11.00;99.90;;;;;;8409163;28;20359;-77
2022/10/07 00:25:09;;;;;;;;;;;10.90;99.90;;;;;;8429041;28;19927;-77
2022/10/07 00:29:11;;;;;;;;;;;11.00;99.90;;;;;;8415288;28;19959;-77
2022/10/07 00:33:13;;;;;;;;;;;10.90;99.90;;;;;;8437250;28;20019;-77
2022/10/07 00:37:14;;;;;;;;;;;10.90;99.90;;;;;;8426688;28;19955;-77
2022/10/07 00:41:18;;;;;;;;;;;10.80;99.90;;;;;;8400352;28;19926;-77
2022/10/07 00:45:20;;;;;;;;;;;10.80;99.90;;;;;;8428704;28;19930;-77
2022/10/07 00:49:22;;;;;;;;;;;10.70;99.90;;;;;;8416053;28;19935;-77
2022/10/07 00:53:25;;;;;;;;;;;10.60;99.90;;;;;;8428679;28;19924;-77
2022/10/07 00:57:28;;;;;;;;;;;10.50;99.90;;;;;;8403796;28;19935;-77
2022/10/07 01:01:30;;;;;;;;;;;10.40;99.90;;;;;;8412882;28;19920;-77
2022/10/07 01:05:31;;;;;;;;;;;10.40;99.90;;;;;;8420841;28;19924;-77
2022/10/07 01:09:33;;;;;;;;;;;10.40;99.90;;;;;;8430651;28;19930;-77
2022/10/07 01:13:41;;;;;;;;;;;10.30;99.90;;;;;;8418157;28;20456;-77
2022/10/07 01:18:03;;;;;;;;;;;10.30;99.90;;;;;;8424999;28;19941;-78
2022/10/07 01:22:10;;;;;;;;;;;10.30;99.90;;;;;;8404359;28;19963;-77
2022/10/07 01:26:12;;;;;;;;;;;10.20;99.90;;;;;;8408273;28;20367;-77
2022/10/07 01:30:13;;;;;;;;;;;10.20;99.90;;;;;;8432535;28;19932;-76
2022/10/07 01:34:16;;;;;;;;;;;10.10;99.90;;;;;;8408582;28;19928;-77
2022/10/07 01:38:18;;;;;;;;;;;10.10;99.90;;;;;;8414784;28;19928;-76
2022/10/07 01:42:20;;;;;;;;;;;10.10;99.90;;;;;;8415687;28;20034;-76
2022/10/07 01:46:24;;;;;;;;;;;10.10;99.90;;;;;;8432471;28;19959;-77
2022/10/07 01:50:26;;;;;;;;;;;10.10;99.90;;;;;;8427318;28;20054;-77
2022/10/07 01:54:28;;;;;;;;;;;10.10;99.90;;;;;;8421040;28;19928;-77
2022/10/07 01:58:35;;;;;;;;;;;10.10;99.90;;;;;;8437396;28;19924;-77
2022/10/07 02:02:47;;;;;;;;;;;10.10;99.90;;;;;;8428195;28;19919;-77
2022/10/07 02:06:53;;;;;;;;;;;10.10;99.90;;;;;;8432889;28;19919;-77
2022/10/07 02:11:07;;;;;;;;;;;10.10;99.90;;;;;;8426070;28;19931;-77
2022/10/07 02:15:12;;;;;;;;;;;10.00;99.90;;;;;;8431972;27;19919;-77
2022/10/07 02:19:17;;;;;;;;;;;10.00;99.90;;;;;;8411847;28;20019;-77
2022/10/07 02:23:19;;;;;;;;;;;10.00;99.90;;;;;;8410601;28;19926;-77
2022/10/07 02:27:24;;;;;;;;;;;9.90;99.90;;;;;;8426387;28;20371;-77
2022/10/07 02:31:29;;;;;;;;;;;9.90;99.90;;;;;;8408553;28;20389;-76
2022/10/07 02:35:39;;;;;;;;;;;9.90;99.90;;;;;;8410279;28;20312;-77
2022/10/07 02:39:42;;;;;;;;;;;9.90;99.90;;;;;;8433090;28;19934;-77
2022/10/07 02:43:55;;;;;;;;;;;10.00;99.90;;;;;;8417407;28;19929;-77
2022/10/07 02:47:59;;;;;;;;;;;10.00;99.90;;;;;;8413314;28;20358;-78
2022/10/07 02:52:06;;;;;;;;;;;10.10;99.90;;;;;;8426710;28;20379;-77
2022/10/07 02:56:07;;;;;;;;;;;10.20;99.90;;;;;;8434730;28;19928;-77
2022/10/07 03:00:09;;;;;;;;;;;10.20;99.90;;;;;;8437825;28;19937;-77
2022/10/07 03:04:12;;;;;;;;;;;10.30;99.90;;;;;;8433515;28;19962;-77
2022/10/07 03:08:13;;;;;;;;;;;10.30;99.90;;;;;;8435476;28;19927;-77
2022/10/07 03:12:15;;;;;;;;;;;10.30;99.90;;;;;;8429546;28;19930;-78
2022/10/07 03:16:16;;;;;;;;;;;10.30;99.90;;;;;;8405009;28;20618;-77
2022/10/07 03:20:18;;;;;;;;;;;10.40;99.90;;;;;;8424578;28;20011;-77
2022/10/07 03:24:20;;;;;;;;;;;10.40;99.90;;;;;;8420873;28;19935;-77
2022/10/07 03:28:22;;;;;;;;;;;10.40;99.90;;;;;;8414881;28;19926;-77
2022/10/07 03:32:26;;;;;;;;;;;10.40;99.90;;;;;;8442930;28;19927;-77
2022/10/07 03:36:27;;;;;;;;;;;10.40;99.90;;;;;;8439761;28;19934;-77
2022/10/07 03:40:29;;;;;;;;;;;10.40;99.90;;;;;;8428648;28;19954;-77
2022/10/07 03:44:30;;;;;;;;;;;10.40;99.90;;;;;;8421146;28;19928;-78
2022/10/07 03:48:32;;;;;;;;;;;10.40;99.90;;;;;;8420508;28;19919;-78
2022/10/07 03:52:35;;;;;;;;;;;10.40;99.90;;;;;;8429167;28;19969;-79
2022/10/07 03:56:37;;;;;;;;;;;10.30;99.90;;;;;;8433313;28;20308;-78
2022/10/07 04:00:40;;;;;;;;;;;10.30;99.90;;;;;;8425545;28;19924;-79
2022/10/07 04:04:41;;;;;;;;;;;10.30;99.90;;;;;;8408304;28;19930;-78
2022/10/07 04:08:43;;;;;;;;;;;10.30;99.90;;;;;;8401982;28;19928;-78
2022/10/07 04:12:47;;;;;;;;;;;10.30;99.90;;;;;;8428077;28;19969;-78
2022/10/07 04:16:49;;;;;;;;;;;10.30;99.90;;;;;;8445079;28;20068;-79
2022/10/07 04:20:51;;;;;;;;;;;10.30;99.90;;;;;;8432134;28;20329;-79
2022/10/07 04:29:13;;;;;;;;;;;10.30;99.90;;;;;;8460455;28;20012;-78
2022/10/07 04:33:15;;;;;;;;;;;10.30;99.90;;;;;;8423970;28;19937;-78
2022/10/07 04:37:17;;;;;;;;;;;10.30;99.90;;;;;;8432983;28;19998;-78
2022/10/07 04:41:19;;;;;;;;;;;10.30;99.90;;;;;;8443685;28;19931;-79
2022/10/07 04:45:21;;;;;;;;;;;10.30;99.90;;;;;;8418164;28;19923;-78
2022/10/07 04:49:22;;;;;;;;;;;10.20;99.90;;;;;;8441559;28;20322;-79
2022/10/07 04:53:24;;;;;;;;;;;10.20;99.90;;;;;;8420764;28;20011;-77
2022/10/07 04:57:25;;;;;;;;;;;10.20;99.90;;;;;;8424000;28;19924;-78
2022/10/07 05:01:28;;;;;;;;;;;10.20;99.90;;;;;;8431157;28;19920;-78
2022/10/07 05:05:30;;;;;;;;;;;10.20;99.90;;;;;;8431613;28;19920;-78
2022/10/07 05:09:32;;;;;;;;;;;10.20;99.90;;;;;;8437430;28;20006;-78
2022/10/07 05:13:36;;;;;;;;;;;10.20;99.90;;;;;;8424291;28;20015;-78
2022/10/07 05:17:41;;;;;;;;;;;10.20;99.90;;;;;;8430001;28;19926;-77
2022/10/07 05:21:43;;;;;;;;;;;10.20;99.90;;;;;;8449502;28;20062;-78
2022/10/07 05:25:45;;;;;;;;;;;10.20;99.90;;;;;;8436542;27;20043;-78
2022/10/07 05:29:47;;;;;;;;;;;10.10;99.90;;;;;;8429931;28;19920;-78
2022/10/07 05:33:48;;;;;;;;;;;10.10;99.90;;;;;;8430847;28;19928;-77
2022/10/07 05:37:53;;;;;;;;;;;10.10;99.90;;;;;;8447000;28;19924;-78
2022/10/07 05:41:56;;;;;;;;;;;10.10;99.90;;;;;;8427589;28;21883;-78
2022/10/07 05:45:59;;;;;;;;;;;10.10;99.90;;;;;;8427310;28;19924;-77
2022/10/07 05:50:01;;;;;;;;;;;10.10;99.90;;;;;;8425383;28;19927;-78
2022/10/07 05:54:03;;;;;;;;;;;10.00;99.90;;;;;;8417412;28;19930;-78
2022/10/07 05:58:04;;;;;;;;;;;10.10;99.90;;;;;;8389660;28;20381;-79
2022/10/07 06:02:06;;;;;;;;;;;10.10;99.90;;;;;;8407733;27;20295;-78
2022/10/07 06:06:08;;;;;;;;;;;10.10;99.90;;;;;;8416964;28;19920;-79
2022/10/07 06:14:30;;;;;;;;;;;10.20;99.90;;;;;;8405315;28;20015;-78
2022/10/07 06:18:32;;;;;;;;;;;10.20;99.90;;;;;;8416521;28;19919;-78
2022/10/07 06:22:33;;;;;;;;;;;10.30;99.90;;;;;;8428136;28;20022;-77
2022/10/07 06:26:35;;;;;;;;;;;10.30;99.90;;;;;;8442872;28;19930;-77
2022/10/07 06:30:37;;;;;;;;;;;10.30;99.90;;;;;;8409982;28;19928;-78
2022/10/07 06:34:38;;;;;;;;;;;10.40;99.90;;;;;;8443051;28;19992;-79
2022/10/07 06:38:47;;;;;;;;;;;10.40;99.90;;;;;;8444692;28;19923;-79
2022/10/07 06:42:48;;;;;;;;;;;10.50;99.90;;;;;;8451938;28;20010;-78
2022/10/07 06:46:50;;;;;;;;;;;10.60;99.90;;;;;;8444346;28;20310;-77
2022/10/07 06:50:52;;;;;;;;;;;10.60;99.90;;;;;;8452616;28;20011;-77
2022/10/07 06:54:54;;;;;;;;;;;10.70;99.90;;;;;;8448063;28;20286;-78
2022/10/07 06:58:56;;;;;;;;;;;10.70;99.90;;;;;;8420296;28;19943;-78
2022/10/07 07:03:00;;;;;;;;;;;10.80;99.90;;;;;;8441271;28;19923;-78
2022/10/07 07:07:01;;;;;;;;;;;10.80;99.90;;;;;;8452407;28;19943;-79
2022/10/07 07:11:34;;;;;;;;;;;10.90;99.90;;;;;;8442805;28;20381;-77
2022/10/07 07:15:26;;;;;;;;;;;10.90;99.90;;;;;;8455853;28;19926;-77
2022/10/07 07:19:28;;;;;;;;;;;10.90;99.90;;;;;;8429995;28;19927;-79
2022/10/07 07:23:30;;;;;;;;;;;11.00;99.90;;;;;;8445932;28;19958;-78
2022/10/07 07:27:31;;;;;;;;;;;11.00;99.90;;;;;;8451334;28;20294;-78
2022/10/07 07:31:34;;;;;;;;;;;11.10;99.90;;;;;;8456491;28;19926;-78
2022/10/07 07:35:37;;;;;;;;;;;11.20;99.90;;;;;;8450980;28;19934;-78
2022/10/07 07:39:38;;;;;;;;;;;11.30;99.90;;;;;;8444550;28;19919;-77
2022/10/07 07:43:40;;;;;;;;;;;11.40;99.90;;;;;;8446511;28;19926;-78
2022/10/07 07:47:42;;;;;;;;;;;11.50;99.90;;;;;;8445908;28;19924;-78
2022/10/07 07:51:44;;;;;;;;;;;11.60;99.90;;;;;;8441254;28;19923;-77
2022/10/07 07:55:55;;;;;;;;;;;11.70;99.90;;;;;;8447154;28;19928;-77
2022/10/07 07:59:57;;;;;;;;;;;11.90;99.90;;;;;;8432253;28;19930;-78
2022/10/07 08:03:59;;;;;;;;;;;12.00;99.90;;;;;;8438523;28;19920;-78
2022/10/07 08:08:01;;;;;;;;;;;12.10;99.90;;;;;;8442788;28;19950;-78
2022/10/07 08:12:03;;;;;;;;;;;12.30;99.90;;;;;;8450124;28;19926;-78
2022/10/07 08:16:05;;;;;;;;;;;12.40;99.90;;;;;;8453563;28;19919;-77
2022/10/07 08:20:09;;;;;;;;;;;12.50;99.90;;;;;;8441938;28;19919;-77
2022/10/07 08:24:11;;;;;;;;;;;12.60;99.90;;;;;;8452290;28;19999;-78
2022/10/07 08:28:13;;;;;;;;;;;12.70;99.90;;;;;;8445802;28;19920;-78
2022/10/07 08:32:14;;;;;;;;;;;12.80;99.90;;;;;;8445494;28;20013;-77
2022/10/07 08:36:17;;;;;;;;;;;12.90;99.90;;;;;;8447154;28;20274;-76
2022/10/07 08:40:19;;;;;;;;;;;12.90;99.90;;;;;;8454265;28;19919;-77
2022/10/07 08:44:26;;;;;;;;;;;12.90;99.90;;;;;;8460256;28;19923;-77
2022/10/07 08:48:33;;;;;;;;;;;12.90;99.90;;;;;;8459291;28;19926;-77
2022/10/07 08:52:41;;;;;;;;;;;13.00;99.90;;;;;;8433604;28;19951;-78
2022/10/07 08:56:42;;;;;;;;;;;13.00;99.90;;;;;;8455559;28;20349;-79
2022/10/07 09:01:05;;;;;;;;;;;13.10;99.90;;;;;;8441941;28;19920;-78
2022/10/07 09:05:19;;;;;;;;;;;13.10;99.90;;;;;;8452236;28;19920;-79
2022/10/07 09:09:23;;;;;;;;;;;13.20;99.90;;;;;;8418518;28;19930;-78
2022/10/07 09:13:29;;;;;;;;;;;13.20;99.90;;;;;;8429333;28;19927;-77
2022/10/07 09:17:34;;;;;;;;;;;13.30;99.90;;;;;;8430824;28;20033;-79
2022/10/07 09:21:42;;;;;;;;;;;13.30;99.90;;;;;;8454396;28;19930;-79
2022/10/07 09:25:44;;;;;;;;;;;13.40;99.90;;;;;;8447108;28;20273;-79
2022/10/07 09:29:46;;;;;;;;;;;13.50;99.90;;;;;;8445034;28;19942;-78
2022/10/07 09:33:52;;;;;;;;;;;13.70;99.90;;;;;;8453246;28;19941;-79
2022/10/07 09:37:59;;;;;;;;;;;13.90;99.90;;;;;;8438799;28;20019;-79
2022/10/07 09:42:01;;;;;;;;;;;14.00;99.90;;;;;;8448965;28;20309;-77
2022/10/07 09:46:03;;;;;;;;;;;14.10;99.90;;;;;;8430715;28;20326;-78
2022/10/07 09:50:25;;;;;;;;;;;14.10;99.90;;;;;;8424994;28;19973;-79
2022/10/07 09:54:27;;;;;;;;;;;14.10;99.90;;;;;;8426548;28;20351;-78
2022/10/07 09:58:30;;;;;;;;;;;14.10;99.90;;;;;;8436040;28;20019;-79
2022/10/07 10:02:32;;;;;;;;;;;14.20;99.90;;;;;;8432968;28;20396;-78
2022/10/07 10:06:34;;;;;;;;;;;14.30;99.90;;;;;;8427374;28;19920;-79
2022/10/07 10:10:36;;;;;;;;;;;14.50;99.90;;;;;;8429350;28;19919;-79
2022/10/07 10:14:54;;;;;;;;;;;14.80;99.90;;;;;;8429467;28;19920;-78
2022/10/07 10:18:57;;;;;;;;;;;15.20;99.90;;;;;;8412216;28;19935;-79
2022/10/07 10:23:00;;;;;;;;;;;15.40;99.90;;;;;;8426748;28;19946;-80
2022/10/07 10:27:08;;;;;;;;;;;15.60;99.90;;;;;;8411991;28;19934;-79
2022/10/07 10:31:25;;;;;;;;;;;15.90;99.90;;;;;;8429075;28;19919;-80
2022/10/07 10:35:28;;;;;;;;;;;16.10;99.90;;;;;;8423591;28;19923;-79
2022/10/07 10:39:38;;;;;;;;;;;16.30;99.90;;;;;;8423891;28;19924;-80
2022/10/07 10:43:49;;;;;;;;;;;16.60;99.90;;;;;;8403503;28;19919;-80
2022/10/07 10:48:03;;;;;;;;;;;16.80;99.90;;;;;;8433169;28;19926;-79
2022/10/07 10:52:24;;;;;;;;;;;17.00;99.90;;;;;;8429942;28;19965;-80
2022/10/07 10:56:33;;;;;;;;;;;17.10;99.90;;;;;;8451518;28;19963;-80
2022/10/07 11:00:38;;;;;;;;;;;17.00;99.90;;;;;;8445687;28;19966;-81
2022/10/07 11:04:42;;;;;;;;;;;16.80;99.90;;;;;;8443984;28;20006;-79
2022/10/07 11:08:46;;;;;;;;;;;17.10;99.90;;;;;;8415758;28;19920;-80
2022/10/07 11:12:53;;;;;;;;;;;17.30;99.90;;;;;;8425970;28;19924;-81
2022/10/07 11:17:00;;;;;;;;;;;17.30;99.90;;;;;;8438410;28;19967;-81
2022/10/07 11:21:06;;;;;;;;;;;17.10;99.90;;;;;;8441120;28;20018;-81
2022/10/07 11:25:19;;;;;;;;;;;17.10;99.90;;;;;;8435124;28;20030;-79
2022/10/07 11:29:45;;;;;;;;;;;17.00;99.90;;;;;;8435080;28;19926;-80
2022/10/07 11:33:52;;;;;;;;;;;16.80;99.90;;;;;;8441657;28;20038;-80
2022/10/07 11:38:03;;;;;;;;;;;16.80;99.90;;;;;;8422022;28;20290;-80
2022/10/07 11:42:25;;;;;;;;;;;16.70;99.90;;;;;;8454177;28;20362;-80
2022/10/07 11:46:26;;;;;;;;;;;16.60;99.90;;;;;;8448251;28;19924;-80
2022/10/07 11:50:30;;;;;;;;;;;16.80;99.90;;;;;;8437064;28;19923;-79
2022/10/07 11:54:41;;;;;;;;;;;17.00;99.90;;;;;;8433067;28;19967;-79
2022/10/07 11:58:43;;;;;;;;;;;17.30;99.90;;;;;;8409311;28;20391;-81
2022/10/07 12:02:45;;;;;;;;;;;17.30;99.90;;;;;;8396529;28;19926;-82
2022/10/07 12:07:06;;;;;;;;;;;17.30;99.90;;;;;;8409709;28;19924;-80
2022/10/07 12:11:14;;;;;;;;;;;17.30;99.90;;;;;;8419902;28;19924;-78
2022/10/07 12:15:34;;;;;;;;;;;17.20;99.90;;;;;;8404195;28;21055;-78
2022/10/07 12:19:36;;;;;;;;;;;17.20;99.90;;;;;;8404236;28;19975;-80
2022/10/07 12:23:38;;;;;;;;;;;17.20;99.90;;;;;;8408754;28;19924;-79
2022/10/07 12:27:45;;;;;;;;;;;17.20;99.90;;;;;;8394928;28;19926;-79
2022/10/07 12:31:47;;;;;;;;;;;17.30;99.90;;;;;;8405214;28;19964;-80
2022/10/07 12:35:49;;;;;;;;;;;17.40;99.90;;;;;;8405628;28;19923;-79
2022/10/07 12:39:56;;;;;;;;;;;17.50;99.90;;;;;;8404191;28;19967;-78
2022/10/07 12:43:58;;;;;;;;;;;17.50;99.90;;;;;;8391262;28;19932;-79
2022/10/07 12:48:00;;;;;;;;;;;17.50;99.90;;;;;;8406595;28;20334;-79
2022/10/07 12:52:23;;;;;;;;;;;17.40;99.90;;;;;;8405927;28;19950;-80
2022/10/07 12:56:28;;;;;;;;;;;17.40;99.90;;;;;;8408114;28;19924;-79
2022/10/07 13:00:30;;;;;;;;;;;17.40;99.90;;;;;;8373868;28;19920;-79
2022/10/07 13:04:50;;;;;;;;;;;17.40;99.90;;;;;;8385892;28;20011;-79
2022/10/07 13:08:55;;;;;;;;;;;17.40;99.90;;;;;;8375599;28;19923;-79
2022/10/07 13:13:03;;;;;;;;;;;17.40;99.90;;;;;;8369502;28;19932;-79
2022/10/07 13:17:17;;;;;;;;;;;17.40;99.90;;;;;;8352611;28;19928;-79
2022/10/07 13:21:18;;;;;;;;;;;17.40;99.90;;;;;;8371458;28;19928;-78
2022/10/07 13:25:20;;;;;;;;;;;17.50;99.90;;;;;;8362425;28;20079;-77
2022/10/07 13:29:27;;;;;;;;;;;17.60;99.90;;;;;;8368611;28;20261;-79
2022/10/07 13:33:30;;;;;;;;;;;17.60;99.90;;;;;;8369866;28;19951;-79
2022/10/07 13:37:35;;;;;;;;;;;17.60;99.90;;;;;;8360004;28;20359;-81
2022/10/07 13:41:41;;;;;;;;;;;17.60;99.90;;;;;;8371396;28;19920;-80
2022/10/07 13:45:44;;;;;;;;;;;17.60;99.90;;;;;;8367974;28;19928;-80
2022/10/07 13:49:48;;;;;;;;;;;17.60;99.90;;;;;;8352018;28;20391;-80
2022/10/07 13:53:51;;;;;;;;;;;17.50;99.90;;;;;;8370522;28;19925;-81
2022/10/07 13:57:56;;;;;;;;;;;17.50;99.90;;;;;;8386436;28;19921;-81
2022/10/07 14:01:57;;;;;;;;;;;17.50;99.90;;;;;;8412694;28;20019;-80
2022/10/07 14:06:00;;;;;;;;;;;17.50;99.90;;;;;;8402733;28;20298;-79
2022/10/07 14:10:07;;;;;;;;;;;17.50;99.90;;;;;;8399489;28;20241;-79
2022/10/07 14:14:38;;;;;;;;;;;17.40;99.90;;;;;;8401061;28;19931;-79
2022/10/07 14:18:42;;;;;;;;;;;17.40;99.90;;;;;;8392644;28;19921;-79
2022/10/07 14:22:46;;;;;;;;;;;17.40;99.90;;;;;;8407015;28;20230;-79
2022/10/07 14:26:48;;;;;;;;;;;17.40;99.90;;;;;;8408493;28;19939;-80
2022/10/07 14:35:26;;;;;;;;;;;17.40;99.90;;;;;;8403162;28;19921;-79
2022/10/07 14:39:30;;;;;;;;;;;17.40;99.90;;;;;;8398841;28;20379;-81
2022/10/07 14:43:32;;;;;;;;;;;17.30;99.90;;;;;;8414800;28;19920;-81
2022/10/07 14:47:33;;;;;;;;;;;17.30;99.90;;;;;;8410582;28;19930;-80
2022/10/07 14:51:35;;;;;;;;;;;17.30;99.90;;;;;;8397199;28;19943;-82
2022/10/07 14:55:37;;;;;;;;;;;17.30;99.90;;;;;;8414514;28;19926;-80
2022/10/07 14:59:39;;;;;;;;;;;17.20;99.90;;;;;;8420043;27;19928;-80
2022/10/07 15:03:40;;;;;;;;;;;17.20;99.90;;;;;;8403940;28;19920;-80
2022/10/07 15:07:42;;;;;;;;;;;17.20;99.90;;;;;;8399494;28;19989;-79
2022/10/07 15:11:44;;;;;;;;;;;17.20;99.90;;;;;;8409557;27;20382;-79
2022/10/07 15:15:46;;;;;;;;;;;17.20;99.90;;;;;;8403705;28;19932;-80
2022/10/07 15:19:50;;;;;;;;;;;17.20;99.90;;;;;;8393611;28;19920;-80
2022/10/07 15:23:52;;;;;;;;;;;17.20;99.90;;;;;;8386611;28;19927;-80
2022/10/07 15:27:54;;;;;;;;;;;17.30;99.90;;;;;;8397652;28;19920;-79
2022/10/07 15:31:55;;;;;;;;;;;17.40;99.90;;;;;;8400027;28;20265;-80
2022/10/07 15:35:57;;;;;;;;;;;17.40;99.90;;;;;;8394373;28;20367;-80
2022/10/07 15:39:59;;;;;;;;;;;17.40;99.90;;;;;;8392841;28;20695;-79
2022/10/07 15:44:02;;;;;;;;;;;17.40;99.90;;;;;;8393409;28;19945;-80
2022/10/07 15:48:04;;;;;;;;;;;17.40;99.90;;;;;;8397878;28;20318;-80
2022/10/07 15:52:07;;;;;;;;;;;17.40;99.90;;;;;;8394551;28;19919;-81
2022/10/07 15:56:09;;;;;;;;;;;17.30;99.90;;;;;;8394523;28;20022;-79
2022/10/07 16:00:11;;;;;;;;;;;17.20;99.90;;;;;;8379850;28;19928;-80
2022/10/07 16:04:14;;;;;;;;;;;17.20;99.90;;;;;;8393782;28;19928;-81
2022/10/07 16:08:15;;;;;;;;;;;17.10;99.90;;;;;;8407453;28;21343;-80
2022/10/07 16:12:17;;;;;;;;;;;17.10;99.90;;;;;;8395179;28;19939;-81
2022/10/07 16:16:23;;;;;;;;;;;17.00;99.90;;;;;;8394380;28;20394;-81
2022/10/07 16:20:24;;;;;;;;;;;17.00;99.90;;;;;;8395009;28;20618;-81
2022/10/07 16:24:26;;;;;;;;;;;17.00;99.90;;;;;;8400331;28;19935;-80
2022/10/07 16:32:51;;;;;;;;;;;17.00;99.90;;;;;;8392431;28;20007;-80
2022/10/07 16:36:54;;;;;;;;;;;16.90;99.90;;;;;;8396265;28;20007;-80
2022/10/07 16:40:55;;;;;;;;;;;16.90;99.90;;;;;;8368596;28;19930;-81
2022/10/07 16:44:57;;;;;;;;;;;16.90;99.90;;;;;;8390200;28;19928;-81
2022/10/07 16:48:59;;;;;;;;;;;16.80;99.90;;;;;;8386416;28;20140;-81
2022/10/07 16:53:01;;;;;;;;;;;16.80;99.90;;;;;;8374952;28;19928;-81
2022/10/07 16:57:02;;;;;;;;;;;16.70;99.90;;;;;;8394152;28;19928;-80
2022/10/07 17:01:08;;;;;;;;;;;16.70;99.90;;;;;;8411637;27;20383;-81
2022/10/07 17:05:10;;;;;;;;;;;16.60;99.90;;;;;;8392989;28;19968;-81
2022/10/07 17:09:12;;;;;;;;;;;16.50;99.90;;;;;;8396837;28;19926;-81
2022/10/07 17:13:16;;;;;;;;;;;16.40;99.90;;;;;;8406656;28;20282;-80
2022/10/07 17:17:18;;;;;;;;;;;16.40;99.90;;;;;;8404332;28;19946;-81
2022/10/07 17:21:20;;;;;;;;;;;16.30;99.90;;;;;;8407551;28;19951;-80
2022/10/07 17:25:22;;;;;;;;;;;16.30;99.90;;;;;;8399433;28;20167;-81
2022/10/07 17:29:24;;;;;;;;;;;16.20;99.90;;;;;;8401544;28;20372;-80
2022/10/07 17:33:26;;;;;;;;;;;16.10;99.90;;;;;;8393008;28;20368;-81
2022/10/07 17:37:28;;;;;;;;;;;16.10;99.90;;;;;;8404273;28;19928;-81
2022/10/07 17:41:31;;;;;;;;;;;16.00;99.90;;;;;;8407405;28;19924;-81
2022/10/07 17:45:34;;;;;;;;;;;16.00;99.90;;;;;;8403631;28;20019;-80
2022/10/07 17:49:35;;;;;;;;;;;15.90;99.90;;;;;;8409445;28;19926;-80
2022/10/07 17:53:38;;;;;;;;;;;15.90;99.90;;;;;;8399395;28;19924;-80
2022/10/07 17:57:40;;;;;;;;;;;15.90;99.90;;;;;;8393423;28;19923;-80
2022/10/07 18:01:43;;;;;;;;;;;15.80;99.90;;;;;;8404438;28;19928;-81
2022/10/07 18:05:51;;;;;;;;;;;15.80;99.90;;;;;;8396717;28;19935;-79
2022/10/07 18:09:53;;;;;;;;;;;15.70;99.90;;;;;;8396494;28;19923;-80
2022/10/07 18:18:15;;;;;;;;;;;15.60;99.90;;;;;;8402148;28;19919;-80
2022/10/07 18:22:16;;;;;;;;;;;15.60;99.90;;;;;;8381896;28;19950;-80
2022/10/07 18:26:18;;;;;;;;;;;15.50;99.90;;;;;;8408220;28;19920;-80
2022/10/07 18:30:20;;;;;;;;;;;15.50;99.90;;;;;;8394612;28;19928;-80
2022/10/07 18:34:22;;;;;;;;;;;15.50;99.90;;;;;;8407776;27;20026;-80
2022/10/07 18:38:23;;;;;;;;;;;15.40;99.90;;;;;;8399043;28;19936;-80
2022/10/07 18:42:26;;;;;;;;;;;15.40;99.90;;;;;;8401987;28;19935;-80
2022/10/07 18:46:28;;;;;;;;;;;15.40;99.90;;;;;;8395777;28;19931;-80
2022/10/07 18:50:29;;;;;;;;;;;15.40;99.90;;;;;;8398669;28;19924;-81
2022/10/07 18:54:34;;;;;;;;;;;15.40;99.90;;;;;;8407975;27;19931;-80
2022/10/07 18:58:37;;;;;;;;;;;15.40;99.90;;;;;;8393080;28;20379;-80
2022/10/07 19:02:38;;;;;;;;;;;15.40;99.90;;;;;;8392317;28;20097;-80
2022/10/07 19:06:43;;;;;;;;;;;15.30;99.90;;;;;;8382150;28;20275;-80
2022/10/07 19:10:45;;;;;;;;;;;15.30;99.90;;;;;;8398448;28;19924;-80
2022/10/07 19:14:47;;;;;;;;;;;15.20;99.90;;;;;;8386898;28;19919;-80
2022/10/07 19:18:50;;;;;;;;;;;15.10;99.90;;;;;;8400478;28;19920;-79
2022/10/07 19:22:52;;;;;;;;;;;15.10;99.90;;;;;;8377937;28;19927;-80
2022/10/07 19:26:55;;;;;;;;;;;15.00;99.90;;;;;;8400992;27;19927;-79
2022/10/07 19:30:58;;;;;;;;;;;15.00;99.90;;;;;;8399982;28;19919;-80
2022/10/07 19:34:59;;;;;;;;;;;15.00;99.90;;;;;;8404301;28;19930;-79
2022/10/07 19:39:01;;;;;;;;;;;14.90;99.90;;;;;;8398605;28;19923;-78
2022/10/07 19:43:04;;;;;;;;;;;14.90;99.90;;;;;;8375542;28;19951;-80
2022/10/07 19:47:05;;;;;;;;;;;14.90;99.90;;;;;;8389001;28;19928;-80
2022/10/07 19:51:10;;;;;;;;;;;14.80;99.90;;;;;;8407714;28;19925;-80
2022/10/07 19:55:12;;;;;;;;;;;14.80;99.90;;;;;;8397245;28;19935;-79
2022/10/07 19:59:14;;;;;;;;;;;14.80;99.90;;;;;;8383244;28;19924;-80
2022/10/07 20:03:15;;;;;;;;;;;14.70;99.90;;;;;;8396504;28;19930;-79
2022/10/07 20:07:17;;;;;;;;;;;14.70;99.90;;;;;;8388190;28;20348;-79
2022/10/07 20:11:19;;;;;;;;;;;14.70;99.90;;;;;;8392265;28;19931;-80
2022/10/07 20:15:22;;;;;;;;;;;14.70;99.90;;;;;;8393563;28;19924;-79
2022/10/07 20:19:24;;;;;;;;;;;14.70;99.90;;;;;;8388192;28;19927;-80
2022/10/07 20:23:25;;;;;;;;;;;14.70;99.90;;;;;;8393775;28;20287;-79
2022/10/07 20:27:27;;;;;;;;;;;14.60;99.90;;;;;;8402484;28;19931;-78
2022/10/07 20:31:30;;;;;;;;;;;14.50;99.90;;;;;;8385699;28;19932;-80
2022/10/07 20:35:32;;;;;;;;;;;14.50;99.90;;;;;;8400032;28;20043;-80
2022/10/07 20:43:54;;;;;;;;;;;14.40;99.90;;;;;;8405740;28;19928;-79
2022/10/07 20:47:58;;;;;;;;;;;14.40;99.90;;;;;;8400052;28;19923;-79
2022/10/07 20:52:01;;;;;;;;;;;14.40;99.90;;;;;;8400788;28;19931;-80
2022/10/07 21:01:07;;;;;;;;;;;14.30;99.90;;;;;;8400908;28;20328;-79
2022/10/07 21:05:09;;;;;;;;;;;14.20;99.90;;;;;;8436659;28;19926;-80
2022/10/07 21:09:11;;;;;;;;;;;14.20;99.90;;;;;;8425347;28;19928;-80
2022/10/07 21:13:13;;;;;;;;;;;14.20;99.90;;;;;;8423708;28;19926;-79
2022/10/07 21:17:15;;;;;;;;;;;14.10;99.90;;;;;;8417837;28;19931;-79
2022/10/07 21:21:17;;;;;;;;;;;14.10;99.90;;;;;;8418952;28;19926;-79
2022/10/07 21:25:18;;;;;;;;;;;14.10;99.90;;;;;;8425753;28;19920;-79
2022/10/07 21:29:20;;;;;;;;;;;14.00;99.90;;;;;;8430137;28;19934;-79
2022/10/07 21:33:23;;;;;;;;;;;14.00;99.90;;;;;;8440913;28;20947;-80
2022/10/07 21:37:24;;;;;;;;;;;13.90;99.90;;;;;;8426776;28;19920;-80
2022/10/07 21:41:29;;;;;;;;;;;13.90;99.90;;;;;;8435330;28;19992;-78
2022/10/07 21:45:31;;;;;;;;;;;13.90;99.90;;;;;;8433580;28;19936;-79
2022/10/07 21:49:33;;;;;;;;;;;13.90;99.90;;;;;;8425651;28;19926;-79
2022/10/07 21:53:35;;;;;;;;;;;13.90;99.90;;;;;;8437380;28;20022;-79
2022/10/07 21:57:36;;;;;;;;;;;13.90;99.90;;;;;;8433618;28;19920;-80
2022/10/07 22:01:38;;;;;;;;;;;13.90;99.90;;;;;;8430834;28;20000;-79
2022/10/07 22:05:40;;;;;;;;;;;13.90;99.90;;;;;;8427525;28;19932;-79
2022/10/07 22:09:42;;;;;;;;;;;13.80;99.90;;;;;;8415653;28;19926;-79
2022/10/07 22:13:53;;;;;;;;;;;13.80;99.90;;;;;;8429547;28;19953;-79
2022/10/07 22:17:55;;;;;;;;;;;13.90;99.90;;;;;;8412658;28;20353;-78
2022/10/07 22:21:57;;;;;;;;;;;13.80;99.90;;;;;;8411550;28;19919;-79
2022/10/07 22:25:59;;;;;;;;;;;13.80;99.90;;;;;;8429507;28;20374;-79
2022/10/07 22:30:01;;;;;;;;;;;13.90;99.90;;;;;;8433496;28;20010;-79
2022/10/07 22:34:03;;;;;;;;;;;13.90;99.90;;;;;;8411358;28;20112;-79
2022/10/07 22:38:04;;;;;;;;;;;13.90;99.90;;;;;;8424639;28;20278;-79
2022/10/07 22:42:06;;;;;;;;;;;13.90;99.90;;;;;;8435567;28;19920;-79
2022/10/07 22:46:08;;;;;;;;;;;13.90;99.90;;;;;;8423435;28;19919;-79
2022/10/07 22:50:10;;;;;;;;;;;13.90;99.90;;;;;;8428921;28;19920;-77
2022/10/07 22:54:12;;;;;;;;;;;13.90;99.90;;;;;;8434872;28;20382;-79
2022/10/07 22:58:14;;;;;;;;;;;13.90;99.90;;;;;;8431333;28;19963;-79
2022/10/07 23:02:15;;;;;;;;;;;13.90;99.90;;;;;;8418393;28;19930;-80
2022/10/07 23:06:18;;;;;;;;;;;13.90;99.90;;;;;;8422792;28;19919;-80
2022/10/07 23:15:22;;;;;;;;;;;14.00;99.90;;;;;;8421829;28;19918;-79
2022/10/07 23:19:24;;;;;;;;;;;14.00;99.90;;;;;;8407841;28;19919;-80
2022/10/07 23:23:26;;;;;;;;;;;14.00;99.90;;;;;;8415565;28;19926;-78
2022/10/07 23:27:28;;;;;;;;;;;14.00;99.90;;;;;;8425459;28;19924;-80
2022/10/07 23:31:30;;;;;;;;;;;14.00;99.90;;;;;;8421226;28;19932;-80
2022/10/07 23:35:32;;;;;;;;;;;14.10;99.90;;;;;;8425097;28;20390;-80
2022/10/07 23:39:33;;;;;;;;;;;14.10;99.90;;;;;;8426867;28;20243;-80
2022/10/07 23:43:35;;;;;;;;;;;14.20;99.90;;;;;;8421641;28;20363;-79
2022/10/07 23:47:37;;;;;;;;;;;14.20;99.90;;;;;;8435270;28;20007;-79
2022/10/07 23:51:38;;;;;;;;;;;14.20;99.90;;;;;;8427066;28;20262;-79
2022/10/07 23:55:47;;;;;;;;;;;14.20;99.90;;;;;;8431093;28;19941;-79
2022/10/07 23:59:48;;;;;;;;;;;14.20;99.90;;;;;;8424137;28;20106;-80
